Whitcomb, Wisconsin
Current Conditions -  °F | °C
As of 9:35 AM on Saturday 22 Nov 2014 (Local Time) from KCLI Reporting Station
Haze Haze  
Wind Chill: 27°   Ceiling: 700
Heat Index: 34°   Visibility: 4mi
Dew Point: 32°   Wind: 8mph
Humidity: 93%   Direction: 220°SW
Pressure: 29.84"   Gusts: NA
Location:  44.7254°N, 89.0642°W
Report Text: KCLI 221535Z AUTO 22007KT 4SM BR OVC007 01/00 A2984 RMK AO2
Loading
Personal Weather Stations






























Interactive Weather Map New forecast layout! Learn more

10-Day Weather Forecast

Advertisements
Track Severe Weather on mobile